KGRF/GRF METAR and TAF weather

Enter ICAO airport designator
Station Type Date Time Source
KGRF METAR 2019/04/23 03:58 UTC NOAA

KGRF 230358Z 19005KT 10SM BKN031 OVC045 11/11 A3022 RMK AO2A SLP238 T01070107 $


Station Type Date Time Source
KGRF Decoded METAR 2019/04/23 03:58 UTC NOAA

Fort Lewis / Gray U. S. Army Airfield, WA, United States (KGRF) 47-07N 122-33W 87M
Apr 22, 2019 - 11:58 PM EDT / 2019.04.23 0358 UTC
Wind: from the S (190 degrees) at 6 MPH (5 KT):0
Visibility: 10 mile(s):0
Sky conditions: overcast
Temperature: 51.3 F (10.7 C)
Dew Point: 51.3 F (10.7 C)
Relative Humidity: 100%
Pressure (altimeter): 30.22 in. Hg (1023 hPa)
ob: KGRF 230358Z 19005KT 10SM BKN031 OVC045 11/11 A3022 RMK AO2A SLP238 T01070107
cycle: 4

Station Type Date Time Source
KGRF TAF 2019/04/23 01:29 UTC NOAA

TAF
AMD KGRF 2301/2403 14006KT 4800 -RA BKN006 BKN013 OVC020 QNH3023INS
BECMG 2309/2310 20009KT 9999 NSW BKN009 OVC030 QNH3020INS
BECMG 2317/2318 23012G20KT 9999 BKN030 QNH3020INS TX16/2321Z TN10/2306Z

Example: see airport list